Time;durP1;ratioP1;P1;durP2;ratioP2;P2;SDS_P1;SDS_P2;PMS_P1;PMS_P2;Temp;Humidity;BMP_temperature;BMP_pressure;BME280_temperature;BME280_humidity;BME280_pressure;Samples;Min_cycle;Max_cycle;Signal;HPM_P1;HPM_P2
2023/12/18 00:02:01;;;;;;;12.95;5.78;;;;;;;-2.36;100.00;95752.66;5020148;28;20049;-71
2023/12/18 00:04:47;;;;;;;19.77;6.97;;;;;;;-2.36;100.00;95749.97;5034598;28;20053;-71
2023/12/18 00:07:34;;;;;;;21.50;9.32;;;;;;;-2.28;100.00;95749.31;5034606;28;20053;-71
2023/12/18 00:10:22;;;;;;;25.67;9.63;;;;;;;-2.18;100.00;95741.13;5033880;28;20061;-71
2023/12/18 00:13:09;;;;;;;19.27;7.53;;;;;;;-2.15;100.00;95742.41;5034220;28;20569;-71
2023/12/18 00:15:56;;;;;;;18.05;7.55;;;;;;;-2.09;100.00;95736.69;5034618;28;20053;-71
2023/12/18 00:18:43;;;;;;;12.37;5.50;;;;;;;-2.27;100.00;95732.91;5034808;28;20474;-71
2023/12/18 00:21:30;;;;;;;12.57;5.72;;;;;;;-2.30;100.00;95725.41;5034525;28;20045;-72
2023/12/18 00:24:18;;;;;;;14.18;6.63;;;;;;;-2.32;100.00;95724.88;5034627;28;20068;-71
2023/12/18 00:27:05;;;;;;;13.38;6.00;;;;;;;-2.30;100.00;95728.09;5034519;28;20057;-70
2023/12/18 00:29:53;;;;;;;14.02;6.18;;;;;;;-2.30;100.00;95727.28;5034159;28;20045;-71
2023/12/18 00:32:40;;;;;;;14.53;6.67;;;;;;;-2.25;100.00;95732.63;5021413;28;20119;-71
2023/12/18 00:35:28;;;;;;;18.23;7.95;;;;;;;-2.28;100.00;95719.75;5034673;28;20054;-71
2023/12/18 00:38:15;;;;;;;16.67;7.93;;;;;;;-2.53;100.00;95718.97;5034281;28;20045;-72
2023/12/18 00:41:01;;;;;;;16.67;6.95;;;;;;;-2.59;100.00;95722.81;5034134;28;20053;-72
2023/12/18 00:43:48;;;;;;;15.75;7.10;;;;;;;-2.57;100.00;95723.34;5034175;28;20049;-71
2023/12/18 00:46:37;;;;;;;13.90;6.73;;;;;;;-2.52;100.00;95719.78;5034114;28;20049;-72
2023/12/18 00:49:27;;;;;;;17.08;7.50;;;;;;;-2.45;100.00;95715.66;5033606;28;20053;-71
2023/12/18 00:52:15;;;;;;;17.60;7.72;;;;;;;-2.37;100.00;95714.22;5034054;28;20081;-72
2023/12/18 00:55:02;;;;;;;15.57;7.20;;;;;;;-2.46;100.00;95715.94;5034468;28;20479;-72
2023/12/18 00:57:51;;;;;;;15.52;7.30;;;;;;;-2.44;100.00;95713.75;5034274;28;20056;-72
2023/12/18 01:00:40;;;;;;;16.63;7.60;;;;;;;-2.46;100.00;95716.72;5033713;28;20132;-71
2023/12/18 01:03:28;;;;;;;15.63;7.05;;;;;;;-2.42;100.00;95716.97;5033613;28;20187;-72
2023/12/18 01:06:15;;;;;;;14.68;6.90;;;;;;;-2.51;100.00;95708.75;5018691;28;20132;-71
2023/12/18 01:09:02;;;;;;;14.52;6.88;;;;;;;-2.48;100.00;95712.72;5033623;28;20057;-72
2023/12/18 01:11:50;;;;;;;15.45;7.35;;;;;;;-2.44;100.00;95719.94;5033428;28;20050;-71
2023/12/18 01:14:37;;;;;;;15.83;7.60;;;;;;;-2.42;100.00;95712.38;5034488;28;20056;-71
2023/12/18 01:17:24;;;;;;;15.43;6.88;;;;;;;-2.34;100.00;95713.63;5032351;28;20076;-71
2023/12/18 01:20:21;;;;;;;14.80;6.65;;;;;;;-2.38;100.00;95709.13;5034106;28;20049;-72
2023/12/18 01:23:08;;;;;;;14.88;6.13;;;;;;;-2.40;100.00;95706.72;5033871;28;20053;-71
2023/12/18 01:25:55;;;;;;;11.80;5.72;;;;;;;-2.55;100.00;95721.16;5032202;28;20053;-72
2023/12/18 01:28:43;;;;;;;11.13;5.20;;;;;;;-2.68;100.00;95719.94;5033797;28;20057;-71
2023/12/18 01:31:30;;;;;;;14.18;6.35;;;;;;;-2.68;100.00;95724.53;5033259;28;20453;-72
2023/12/18 01:34:17;;;;;;;14.25;6.82;;;;;;;-2.70;100.00;95721.31;5032440;28;20081;-71
2023/12/18 01:37:05;;;;;;;13.18;6.22;;;;;;;-2.62;100.00;95718.81;5033517;28;20188;-72
2023/12/18 01:39:52;;;;;;;11.45;5.93;;;;;;;-2.67;100.00;95720.78;5033416;28;20495;-71
2023/12/18 01:42:43;;;;;;;13.53;5.83;;;;;;;-2.61;100.00;95715.03;5033474;28;20463;-71
2023/12/18 01:45:30;;;;;;;12.55;5.38;;;;;;;-2.64;100.00;95712.13;5033053;28;20100;-72
2023/12/18 01:48:17;;;;;;;9.85;4.65;;;;;;;-2.57;100.00;95714.47;5033512;28;20064;-71
2023/12/18 01:51:05;;;;;;;13.68;5.85;;;;;;;-2.57;100.00;95709.09;5032305;28;20188;-71
2023/12/18 01:53:55;;;;;;;14.35;5.57;;;;;;;-2.62;100.00;95708.06;5033965;28;20085;-71
2023/12/18 01:56:42;;;;;;;13.30;5.67;;;;;;;-2.55;100.00;95709.63;5032495;28;20089;-71
2023/12/18 01:59:32;;;;;;;10.68;5.18;;;;;;;-2.61;100.00;95708.88;5032863;28;20065;-72
2023/12/18 02:02:19;;;;;;;14.00;5.82;;;;;;;-2.54;100.00;95708.50;5032743;28;20407;-71
2023/12/18 02:05:06;;;;;;;12.65;5.57;;;;;;;-2.45;100.00;95704.91;5032597;28;20092;-71
2023/12/18 02:07:54;;;;;;;11.82;5.28;;;;;;;-2.39;100.00;95707.50;5032971;28;20592;-71
2023/12/18 02:10:42;;;;;;;12.43;5.50;;;;;;;-2.46;100.00;95705.97;5032453;28;20494;-71
2023/12/18 02:13:29;;;;;;;12.60;5.55;;;;;;;-2.38;100.00;95701.06;5031953;28;20052;-71
2023/12/18 02:16:16;;;;;;;13.80;6.32;;;;;;;-2.45;100.00;95691.47;5031964;28;20053;-71
2023/12/18 02:19:03;;;;;;;13.02;5.88;;;;;;;-2.47;100.00;95695.53;5032188;28;20071;-71
2023/12/18 02:21:50;;;;;;;13.20;5.70;;;;;;;-2.51;100.00;95697.19;5032263;28;20041;-71
2023/12/18 02:24:37;;;;;;;13.30;5.87;;;;;;;-2.51;100.00;95698.00;5032846;28;20053;-72
2023/12/18 02:27:25;;;;;;;13.35;5.60;;;;;;;-2.57;100.00;95691.06;5032503;28;20406;-71
2023/12/18 02:30:20;;;;;;;12.32;5.57;;;;;;;-2.38;100.00;95695.69;5032428;28;20046;-71
2023/12/18 02:33:07;;;;;;;14.05;5.80;;;;;;;-2.49;100.00;95701.19;5032037;28;20056;-72
2023/12/18 02:35:56;;;;;;;14.50;6.30;;;;;;;-2.57;100.00;95696.44;5032569;28;20049;-72
2023/12/18 02:38:43;;;;;;;11.40;5.13;;;;;;;-2.70;100.00;95703.31;5032612;28;20049;-71
2023/12/18 02:41:30;;;;;;;12.80;5.55;;;;;;;-2.68;100.00;95701.13;5031631;28;20060;-72
2023/12/18 02:44:17;;;;;;;14.85;6.38;;;;;;;-2.74;100.00;95696.13;5031538;28;20050;-71
2023/12/18 02:47:03;;;;;;;18.25;6.63;;;;;;;-2.85;100.00;95692.75;5032080;28;20172;-71
2023/12/18 02:49:50;;;;;;;15.82;6.80;;;;;;;-3.01;100.00;95684.88;5031972;28;20056;-71
2023/12/18 02:52:37;;;;;;;14.73;6.17;;;;;;;-2.88;100.00;95691.44;5032437;28;20050;-71
2023/12/18 02:55:24;;;;;;;12.80;5.63;;;;;;;-2.95;100.00;95688.28;5031532;28;20045;-71
2023/12/18 02:58:12;;;;;;;14.75;5.93;;;;;;;-2.91;100.00;95689.31;5031567;28;20057;-71
2023/12/18 03:00:59;;;;;;;13.02;5.60;;;;;;;-2.86;100.00;95688.47;5032363;28;20077;-72
2023/12/18 03:03:46;;;;;;;13.30;5.38;;;;;;;-2.93;100.00;95691.50;5031807;28;20100;-72
2023/12/18 03:06:33;;;;;;;13.47;5.60;;;;;;;-2.99;100.00;95689.94;5031507;28;20057;-71
2023/12/18 03:09:20;;;;;;;14.52;5.78;;;;;;;-3.03;100.00;95681.66;5030413;28;20058;-71
2023/12/18 03:12:07;;;;;;;14.10;5.97;;;;;;;-3.07;100.00;95679.84;5032503;28;20164;-71
2023/12/18 03:14:54;;;;;;;13.00;5.32;;;;;;;-3.16;100.00;95673.47;5031266;28;20053;-72
2023/12/18 03:17:41;;;;;;;13.57;5.75;;;;;;;-3.04;100.00;95673.88;5034037;28;20052;-71
2023/12/18 03:20:28;;;;;;;12.33;5.03;;;;;;;-3.10;100.00;95664.28;5035768;28;20050;-71
2023/12/18 03:23:15;;;;;;;13.82;5.93;;;;;;;-3.01;100.00;95667.94;5035752;28;20045;-71
2023/12/18 03:26:02;;;;;;;14.13;5.97;;;;;;;-3.07;100.00;95666.41;5035258;28;20049;-71
2023/12/18 03:28:49;;;;;;;15.90;6.68;;;;;;;-3.11;100.00;95651.97;5035399;28;20049;-71
2023/12/18 03:31:36;;;;;;;13.45;6.22;;;;;;;-3.03;100.00;95659.38;5035559;28;20053;-72
2023/12/18 03:34:23;;;;;;;16.43;6.80;;;;;;;-2.99;100.00;95671.16;5034723;28;20446;-71
2023/12/18 03:37:10;;;;;;;16.00;5.75;;;;;;;-3.14;100.00;95660.56;5035167;28;20068;-70
2023/12/18 03:39:57;;;;;;;14.10;6.50;;;;;;;-3.17;100.00;95661.16;5035177;28;20407;-72
2023/12/18 03:42:44;;;;;;;16.77;6.15;;;;;;;-3.19;100.00;95660.63;5035048;28;20479;-72
2023/12/18 03:45:31;;;;;;;19.38;6.63;;;;;;;-3.14;100.00;95658.69;5035287;28;20053;-71
2023/12/18 03:48:19;;;;;;;16.10;6.33;;;;;;;-3.04;100.00;95655.06;5035393;28;20060;-71
2023/12/18 03:51:06;;;;;;;14.63;5.88;;;;;;;-3.03;100.00;95651.31;5034722;28;20056;-71
2023/12/18 03:53:53;;;;;;;16.77;6.30;;;;;;;-3.03;100.00;95660.19;5034879;28;20041;-71
2023/12/18 03:56:40;;;;;;;20.88;6.75;;;;;;;-3.10;100.00;95646.31;5035497;28;20496;-71
2023/12/18 03:59:27;;;;;;;19.08;7.53;;;;;;;-3.01;100.00;95655.31;5034248;28;20053;-71
2023/12/18 04:02:14;;;;;;;17.67;6.90;;;;;;;-3.05;100.00;95645.44;5034480;28;20497;-71
2023/12/18 04:05:01;;;;;;;17.27;7.00;;;;;;;-2.95;100.00;95642.63;5035291;28;20045;-71
2023/12/18 04:07:48;;;;;;;24.17;9.07;;;;;;;-3.12;100.00;95651.16;5034496;28;20064;-71
2023/12/18 04:10:35;;;;;;;17.67;7.15;;;;;;;-3.10;100.00;95640.94;5034389;28;20053;-72
2023/12/18 04:13:23;;;;;;;16.00;6.50;;;;;;;-3.12;100.00;95645.78;5034809;28;20053;-71
2023/12/18 04:16:10;;;;;;;15.13;6.80;;;;;;;-3.36;100.00;95650.31;5034510;28;20061;-71
2023/12/18 04:18:57;;;;;;;17.88;6.70;;;;;;;-3.29;100.00;95646.22;5034918;28;20049;-72
2023/12/18 04:21:44;;;;;;;16.70;6.95;;;;;;;-3.35;100.00;95644.69;5034980;28;20053;-71
2023/12/18 04:24:31;;;;;;;24.60;7.82;;;;;;;-3.24;100.00;95642.69;5034567;28;20596;-71
2023/12/18 04:27:18;;;;;;;18.02;7.35;;;;;;;-3.18;100.00;95648.78;5033621;28;20061;-71
2023/12/18 04:30:05;;;;;;;19.67;7.83;;;;;;;-3.36;100.00;95645.78;5034248;28;20053;-71
2023/12/18 04:32:52;;;;;;;17.95;7.13;;;;;;;-3.24;100.00;95651.56;5020589;28;20064;-71
2023/12/18 04:35:39;;;;;;;19.77;7.53;;;;;;;-3.21;100.00;95653.66;5034589;28;20057;-71
2023/12/18 04:38:27;;;;;;;19.35;7.25;;;;;;;-3.10;100.00;95649.00;5033556;28;20079;-72
2023/12/18 04:41:21;;;;;;;14.52;7.05;;;;;;;-3.14;100.00;95647.97;5034281;28;20045;-71
2023/12/18 04:44:08;;;;;;;14.20;5.73;;;;;;;-2.92;100.00;95654.69;5034520;28;20061;-72
2023/12/18 04:46:56;;;;;;;14.45;5.85;;;;;;;-3.02;100.00;95651.03;5032757;28;20056;-71
2023/12/18 04:49:43;;;;;;;16.23;6.50;;;;;;;-3.03;100.00;95656.69;5033983;28;20057;-70
2023/12/18 04:52:30;;;;;;;17.73;6.75;;;;;;;-3.13;100.00;95648.75;5034028;28;20049;-72
2023/12/18 04:55:17;;;;;;;14.80;6.22;;;;;;;-3.08;100.00;95656.75;5033430;28;20052;-71
2023/12/18 04:58:04;;;;;;;11.53;4.87;;;;;;;-3.07;100.00;95648.41;5034148;28;20475;-71
2023/12/18 05:00:50;;;;;;;12.98;5.55;;;;;;;-3.16;100.00;95650.09;5033167;28;20053;-72
2023/12/18 05:03:37;;;;;;;18.17;6.65;;;;;;;-3.10;100.00;95658.91;5033419;28;20049;-72
2023/12/18 05:06:27;;;;;;;13.18;5.57;;;;;;;-3.18;100.00;95648.78;5033368;28;20132;-71
2023/12/18 05:09:14;;;;;;;13.30;6.25;;;;;;;-3.29;100.00;95651.59;5033093;28;20491;-72
2023/12/18 05:12:02;;;;;;;14.57;5.67;;;;;;;-3.30;100.00;95647.31;5033323;28;20049;-72
2023/12/18 05:14:49;;;;;;;15.07;6.40;;;;;;;-3.24;100.00;95650.72;5033866;28;20041;-72
2023/12/18 05:17:35;;;;;;;14.25;6.50;;;;;;;-3.17;100.00;95650.41;5033034;28;20045;-72
2023/12/18 05:20:22;;;;;;;32.30;14.00;;;;;;;-3.09;100.00;95653.25;5032862;28;20395;-72
2023/12/18 05:23:09;;;;;;;47.80;20.02;;;;;;;-3.05;100.00;95651.59;5019181;28;20049;-71
2023/12/18 05:25:56;;;;;;;25.67;10.13;;;;;;;-3.14;100.00;95652.50;5018591;28;20080;-72
2023/12/18 05:28:43;;;;;;;20.27;9.65;;;;;;;-3.06;100.00;95647.34;5018582;28;20049;-72
2023/12/18 05:31:30;;;;;;;21.10;8.73;;;;;;;-3.06;100.00;95652.69;5033262;28;20052;-72
2023/12/18 05:34:17;;;;;;;16.25;5.97;;;;;;;-3.12;100.00;95648.47;5032950;28;20089;-72
2023/12/18 05:37:04;;;;;;;20.73;8.07;;;;;;;-3.11;100.00;95652.75;5033891;28;20052;-72
2023/12/18 05:39:51;;;;;;;17.80;8.23;;;;;;;-3.03;100.00;95654.00;5032566;28;20510;-71
2023/12/18 05:42:38;;;;;;;18.60;7.78;;;;;;;-3.14;100.00;95658.69;5032601;28;20466;-72
2023/12/18 05:45:25;;;;;;;16.45;7.45;;;;;;;-3.22;100.00;95653.94;5032877;28;20104;-72
2023/12/18 05:48:12;;;;;;;18.05;7.18;;;;;;;-3.28;100.00;95657.75;5032724;28;20080;-71
2023/12/18 05:50:59;;;;;;;16.48;6.88;;;;;;;-3.33;100.00;95655.13;5032740;28;20045;-72
2023/12/18 05:53:47;;;;;;;19.47;7.20;;;;;;;-3.30;100.00;95663.44;5031914;28;20045;-72
2023/12/18 05:56:33;;;;;;;16.52;6.88;;;;;;;-3.29;100.00;95665.03;5033700;28;20045;-72
2023/12/18 05:59:20;;;;;;;15.75;7.32;;;;;;;-3.28;100.00;95657.75;5031952;28;20053;-72
2023/12/18 06:02:07;;;;;;;13.85;5.53;;;;;;;-3.26;100.00;95666.31;5033402;28;20048;-72
2023/12/18 06:04:54;;;;;;;13.07;5.47;;;;;;;-3.31;100.00;95667.19;5032676;28;20041;-72
2023/12/18 06:07:42;;;;;;;13.20;5.80;;;;;;;-3.44;100.00;95659.78;5032561;28;20418;-72
2023/12/18 06:10:29;;;;;;;22.23;9.95;;;;;;;-3.50;100.00;95653.69;5032411;28;20510;-72
2023/12/18 06:13:15;;;;;;;47.58;17.85;;;;;;;-3.59;100.00;95654.59;5033038;28;20052;-71
2023/12/18 06:16:03;;;;;;;50.75;15.82;;;;;;;-3.59;100.00;95655.38;5031237;28;20542;-72
2023/12/18 06:18:49;;;;;;;21.00;9.00;;;;;;;-3.66;100.00;95645.00;5031330;28;20421;-71
2023/12/18 06:21:41;;;;;;;18.67;8.67;;;;;;;-3.61;100.00;95652.97;5032982;28;20045;-71
2023/12/18 06:24:28;;;;;;;18.85;7.57;;;;;;;-3.64;100.00;95653.56;5032977;28;20060;-71
2023/12/18 06:27:15;;;;;;;21.73;9.43;;;;;;;-3.46;100.00;95656.59;5032814;28;20060;-69
2023/12/18 06:30:02;;;;;;;19.73;8.23;;;;;;;-3.65;100.00;95649.25;5040399;28;20058;-71
2023/12/18 06:32:49;;;;;;;17.92;8.35;;;;;;;-3.66;100.00;95657.63;5031615;28;20060;-70
2023/12/18 06:35:36;;;;;;;20.47;9.80;;;;;;;-3.72;100.00;95656.84;5030378;28;20422;-71
2023/12/18 06:38:23;;;;;;;18.65;7.90;;;;;;;-3.70;100.00;95659.22;5031476;28;20053;-71
2023/12/18 06:41:10;;;;;;;16.85;7.38;;;;;;;-3.66;100.00;95653.03;5031923;28;20079;-71
2023/12/18 06:43:57;;;;;;;21.33;8.15;;;;;;;-3.66;100.00;95660.28;5032912;28;20058;-71
2023/12/18 06:46:44;;;;;;;20.17;7.82;;;;;;;-3.65;100.00;95653.81;5033122;28;20154;-71
2023/12/18 06:49:31;;;;;;;21.37;8.53;;;;;;;-3.68;100.00;95655.19;5031536;28;20549;-71
2023/12/18 06:52:18;;;;;;;18.30;7.50;;;;;;;-3.58;100.00;95653.50;5035812;28;20053;-70
2023/12/18 06:55:05;;;;;;;15.82;6.60;;;;;;;-3.58;100.00;95657.00;5036492;28;20060;-72
2023/12/18 06:57:52;;;;;;;19.25;8.43;;;;;;;-3.62;100.00;95661.31;5037058;28;20049;-72
2023/12/18 07:00:39;;;;;;;18.63;8.75;;;;;;;-3.52;100.00;95665.78;5036084;28;20042;-72
2023/12/18 07:03:27;;;;;;;18.10;7.57;;;;;;;-3.51;100.00;95665.50;5035925;28;20052;-72
2023/12/18 07:06:18;;;;;;;16.98;6.82;;;;;;;-3.53;100.00;95664.97;5035846;28;20045;-72
2023/12/18 07:09:05;;;;;;;18.45;7.85;;;;;;;-3.42;100.00;95671.88;5036468;28;20050;-72
2023/12/18 07:11:52;;;;;;;16.85;7.20;;;;;;;-3.44;100.00;95662.47;5035537;28;20100;-72
2023/12/18 07:14:42;;;;;;;20.02;7.78;;;;;;;-3.50;100.00;95667.13;5036182;28;20053;-72
2023/12/18 07:17:29;;;;;;;18.20;8.07;;;;;;;-3.39;100.00;95672.38;5035394;28;20060;-66
2023/12/18 07:20:16;;;;;;;19.75;7.32;;;;;;;-3.51;100.00;95675.44;5035523;28;20525;-70
2023/12/18 07:23:03;;;;;;;19.40;8.43;;;;;;;-3.48;100.00;95664.94;5034509;28;20088;-69
2023/12/18 07:27:10;;;;;;;17.65;7.55;;;;;;;-3.59;100.00;95663.44;5172543;27;20123;-74
2023/12/18 07:29:57;;;;;;;16.40;6.82;;;;;;;-3.53;100.00;95662.31;5149646;27;20430;-64
2023/12/18 07:32:44;;;;;;;20.77;7.90;;;;;;;-3.35;100.00;95670.72;5149258;27;20484;-69
2023/12/18 07:35:31;;;;;;;16.05;6.93;;;;;;;-3.38;100.00;95657.88;5149086;27;20620;-62
2023/12/18 07:38:18;;;;;;;17.27;7.43;;;;;;;-3.32;100.00;95662.91;5149565;27;20046;-63
2023/12/18 07:41:05;;;;;;;17.88;8.07;;;;;;;-3.15;100.00;95658.97;5149291;27;20100;-67
2023/12/18 07:43:52;;;;;;;16.98;6.60;;;;;;;-3.18;100.00;95657.66;5149141;27;20117;-64
2023/12/18 07:46:39;;;;;;;20.13;7.78;;;;;;;-3.22;100.00;95653.94;5148444;27;20043;-64
2023/12/18 07:49:26;;;;;;;16.20;6.40;;;;;;;-3.26;100.00;95653.72;5151203;27;20372;-64
2023/12/18 07:52:13;;;;;;;17.63;7.53;;;;;;;-3.18;100.00;95654.97;5122906;27;20040;-62
2023/12/18 07:55:00;;;;;;;15.02;7.00;;;;;;;-3.24;100.00;95656.09;5128479;27;20077;-62
2023/12/18 07:57:47;;;;;;;18.83;7.72;;;;;;;-3.15;100.00;95646.34;5129360;27;20403;-64
2023/12/18 08:00:34;;;;;;;19.58;8.05;;;;;;;-3.14;100.00;95650.66;5114519;27;20047;-62
2023/12/18 08:03:21;;;;;;;16.58;7.78;;;;;;;-3.08;100.00;95648.69;5129230;27;20054;-62
2023/12/18 08:06:08;;;;;;;15.88;7.00;;;;;;;-2.98;100.00;95647.78;5128079;27;20055;-62
2023/12/18 08:08:55;;;;;;;17.52;7.18;;;;;;;-3.01;100.00;95649.16;5128862;27;20134;-62
2023/12/18 08:11:42;;;;;;;18.15;7.72;;;;;;;-1.24;100.00;95639.78;5130351;27;20047;-62
2023/12/18 08:14:29;;;;;;;17.40;8.23;;;;;;;0.91;100.00;95636.88;5129171;27;20043;-62
2023/12/18 08:17:15;;;;;;;15.97;7.47;;;;;;;3.13;100.00;95622.38;5129141;27;20404;-63
2023/12/18 08:20:03;;;;;;;13.77;7.20;;;;;;;5.19;100.00;95618.63;5116579;28;20074;-62
2023/12/18 08:22:50;;;;;;;13.95;7.40;;;;;;;6.89;97.31;95616.22;5120916;28;20396;-62
2023/12/18 08:25:37;;;;;;;13.15;7.30;;;;;;;8.26;83.33;95612.78;5125854;28;20404;-63
2023/12/18 08:28:23;;;;;;;13.40;7.38;;;;;;;9.32;65.61;95606.19;5126922;28;20051;-63
2023/12/18 08:31:11;;;;;;;12.73;7.40;;;;;;;7.06;80.18;95606.88;5123765;28;20104;-63
2023/12/18 08:33:58;;;;;;;12.95;6.68;;;;;;;7.91;70.26;95605.41;5126542;28;20504;-63
2023/12/18 08:36:45;;;;;;;13.82;7.85;;;;;;;7.49;73.47;95603.28;5122874;28;20052;-62
2023/12/18 08:39:32;;;;;;;13.65;7.38;;;;;;;8.33;71.42;95606.66;5112657;28;20477;-63
2023/12/18 08:42:19;;;;;;;12.45;7.20;;;;;;;8.55;65.05;95600.50;5112701;28;20055;-64
2023/12/18 08:45:07;;;;;;;11.53;6.83;;;;;;;7.58;67.50;95598.41;5113911;28;20059;-63
2023/12/18 08:47:54;;;;;;;13.25;7.40;;;;;;;8.21;68.85;95599.41;5107149;28;20054;-63
2023/12/18 08:50:42;;;;;;;14.68;8.75;;;;;;;9.81;63.44;95608.13;5108234;28;20044;-63
2023/12/18 08:53:30;;;;;;;13.45;8.48;;;;;;;9.40;64.98;95597.72;5094860;28;20048;-63
2023/12/18 08:56:16;;;;;;;15.52;9.18;;;;;;;10.01;62.94;95592.34;5095309;28;20425;-63
2023/12/18 08:59:03;;;;;;;15.80;8.90;;;;;;;12.96;50.24;95590.13;5099707;28;20079;-63
2023/12/18 09:01:50;;;;;;;12.80;7.43;;;;;;;9.97;54.25;95595.03;5100672;28;20048;-64
2023/12/18 09:04:37;;;;;;;11.40;7.38;;;;;;;8.69;59.01;95596.44;5113931;28;20074;-63
2023/12/18 09:07:24;;;;;;;11.45;7.70;;;;;;;9.63;58.65;95585.16;5094102;28;20047;-63
2023/12/18 09:10:13;;;;;;;10.40;6.80;;;;;;;8.91;60.92;95587.47;5095161;28;20097;-64
2023/12/18 09:13:01;;;;;;;9.87;6.27;;;;;;;10.74;55.75;95592.09;5101456;27;20055;-67
2023/12/18 09:15:47;;;;;;;12.95;6.25;;;;;;;11.15;51.68;95587.44;5100814;27;20044;-67
2023/12/18 09:18:34;;;;;;;9.52;6.10;;;;;;;9.78;55.53;95595.19;5053079;28;20164;-66
2023/12/18 09:21:22;;;;;;;9.55;5.85;;;;;;;9.75;55.45;95590.41;5042621;28;20387;-67
2023/12/18 09:24:09;;;;;;;9.95;6.28;;;;;;;9.27;56.64;95592.78;5041472;28;20549;-67
2023/12/18 09:26:56;;;;;;;10.60;6.33;;;;;;;10.62;54.70;95589.63;5040877;28;20053;-67
2023/12/18 09:29:43;;;;;;;11.30;6.78;;;;;;;10.37;54.51;95593.66;5042495;28;20037;-67
2023/12/18 09:32:30;;;;;;;10.63;6.85;;;;;;;10.26;55.15;95594.63;5041902;28;20033;-67
2023/12/18 09:35:17;;;;;;;9.90;6.38;;;;;;;9.87;55.84;95589.41;5042155;28;20045;-67
2023/12/18 09:38:04;;;;;;;9.65;6.10;;;;;;;10.37;54.45;95582.66;5039677;28;20061;-67
2023/12/18 09:40:51;;;;;;;8.93;5.73;;;;;;;11.35;53.71;95573.50;5030295;28;20042;-67
2023/12/18 09:43:38;;;;;;;9.68;6.18;;;;;;;12.41;49.63;95574.56;5045253;28;20045;-67
2023/12/18 09:46:25;;;;;;;9.55;6.65;;;;;;;11.24;50.28;95575.34;5040315;28;20453;-66
2023/12/18 09:49:12;;;;;;;9.38;6.43;;;;;;;10.28;55.21;95584.88;5038892;28;20398;-67
2023/12/18 09:52:03;;;;;;;10.55;6.85;;;;;;;12.92;46.88;95570.81;5043482;28;20057;-67
2023/12/18 09:54:51;;;;;;;9.97;6.53;;;;;;;14.84;43.93;95566.66;5027090;28;20051;-67
2023/12/18 09:57:38;;;;;;;11.30;6.70;;;;;;;13.47;45.48;95561.44;5042029;28;20048;-67
2023/12/18 10:00:27;;;;;;;12.35;8.20;;;;;;;13.20;44.99;95574.81;5039041;28;20095;-67
2023/12/18 10:03:16;;;;;;;10.40;6.80;;;;;;;11.49;48.78;95578.28;5040423;28;20056;-67
2023/12/18 10:06:04;;;;;;;11.45;7.25;;;;;;;11.66;49.76;95568.63;5041158;28;20049;-66
2023/12/18 10:08:51;;;;;;;12.03;7.60;;;;;;;11.23;52.13;95565.50;5044415;28;20104;-68
2023/12/18 10:11:38;;;;;;;11.80;7.57;;;;;;;11.09;53.62;95555.97;5043624;28;20099;-68
2023/12/18 10:14:25;;;;;;;12.07;7.07;;;;;;;12.11;51.36;95548.09;5040788;28;20049;-67
2023/12/18 10:17:12;;;;;;;11.30;7.50;;;;;;;13.55;47.31;95538.19;5041758;28;20416;-67
2023/12/18 10:20:02;;;;;;;11.65;7.63;;;;;;;12.55;48.79;95535.28;5044387;28;20495;-67
2023/12/18 10:22:49;;;;;;;12.87;7.40;;;;;;;12.64;48.25;95543.19;5042666;28;20054;-67
2023/12/18 10:25:36;;;;;;;12.40;8.10;;;;;;;11.27;51.55;95539.66;5040521;28;20140;-67
2023/12/18 10:28:23;;;;;;;12.85;7.80;;;;;;;13.11;48.30;95530.28;5037696;28;20490;-67
2023/12/18 10:31:10;;;;;;;14.40;8.00;;;;;;;14.51;45.40;95528.09;5040667;28;20053;-65
2023/12/18 10:33:58;;;;;;;13.65;8.00;;;;;;;13.56;45.85;95527.94;5039870;28;20486;-66
2023/12/18 10:36:45;;;;;;;12.07;7.43;;;;;;;12.62;47.74;95526.28;5041130;28;20059;-66
2023/12/18 10:39:40;;;;;;;12.90;7.82;;;;;;;12.83;48.14;95518.03;5042988;28;20040;-67
2023/12/18 10:42:31;;;;;;;13.63;8.25;;;;;;;13.23;46.29;95515.34;5044507;28;20045;-68
2023/12/18 10:45:20;;;;;;;11.18;7.65;;;;;;;13.13;47.29;95514.91;5023046;28;20037;-65
2023/12/18 10:48:07;;;;;;;11.93;7.65;;;;;;;13.61;45.91;95508.25;5038713;28;20041;-65
2023/12/18 10:50:56;;;;;;;11.30;7.20;;;;;;;12.06;50.08;95512.69;5033134;28;20061;-65
2023/12/18 10:53:44;;;;;;;11.73;7.38;;;;;;;11.12;52.64;95508.50;5042249;28;20041;-66
2023/12/18 10:56:33;;;;;;;12.30;7.45;;;;;;;11.89;52.02;95505.94;5045079;28;20060;-65
2023/12/18 10:59:21;;;;;;;13.32;7.75;;;;;;;13.55;48.91;95512.59;5041016;28;20065;-66
2023/12/18 11:02:10;;;;;;;13.73;8.15;;;;;;;12.42;49.66;95512.03;5036488;28;20052;-65
2023/12/18 11:04:59;;;;;;;15.23;8.70;;;;;;;15.22;44.61;95492.16;5038771;28;20045;-65
2023/12/18 11:07:46;;;;;;;15.23;8.98;;;;;;;13.29;47.23;95491.69;5039171;28;20040;-65
2023/12/18 11:10:34;;;;;;;14.20;8.57;;;;;;;14.08;46.08;95488.81;5037813;28;20041;-65
2023/12/18 11:13:27;;;;;;;12.95;7.80;;;;;;;13.37;47.06;95485.03;5044290;28;20037;-65
2023/12/18 11:16:17;;;;;;;12.68;8.27;;;;;;;14.66;45.97;95478.31;5042785;28;20049;-65
2023/12/18 11:19:25;;;;;;;12.37;7.87;;;;;;;15.09;43.42;95476.06;5039618;28;20052;-65
2023/12/18 11:22:22;;;;;;;14.48;9.27;;;;;;;12.83;48.95;95475.94;5042981;28;20059;-65
2023/12/18 11:25:10;;;;;;;15.48;8.95;;;;;;;14.10;46.69;95467.09;5037176;28;20062;-65
2023/12/18 11:28:01;;;;;;;11.88;7.53;;;;;;;13.59;47.65;95463.72;5041499;28;20042;-65
2023/12/18 11:30:48;;;;;;;11.98;8.07;;;;;;;14.66;45.84;95465.28;5039860;28;20049;-65
2023/12/18 11:33:35;;;;;;;13.23;8.10;;;;;;;13.13;47.86;95457.03;5037795;28;20041;-65
2023/12/18 11:36:34;;;;;;;13.90;7.80;;;;;;;14.27;45.81;95455.22;5042247;28;20073;-65
2023/12/18 11:39:21;;;;;;;13.23;7.95;;;;;;;14.36;45.88;95447.25;5038156;28;20267;-65
2023/12/18 11:42:10;;;;;;;13.90;8.70;;;;;;;14.29;45.96;95443.78;5042969;28;20049;-65
2023/12/18 11:45:03;;;;;;;13.63;8.50;;;;;;;12.76;49.53;95449.16;5036293;28;20088;-65
2023/12/18 11:47:55;;;;;;;15.57;9.10;;;;;;;13.94;47.38;95438.00;5042389;28;20495;-65
2023/12/18 11:50:42;;;;;;;14.30;8.30;;;;;;;13.89;47.07;95440.38;5039470;28;20057;-66
2023/12/18 11:53:35;;;;;;;13.20;8.55;;;;;;;13.95;48.50;95438.78;5039047;28;20517;-66
2023/12/18 11:56:22;;;;;;;13.50;8.00;;;;;;;14.24;47.02;95431.16;5040739;28;20057;-66
2023/12/18 11:59:10;;;;;;;14.05;8.88;;;;;;;13.10;48.92;95429.47;5036705;28;20049;-66
2023/12/18 12:01:57;;;;;;;13.67;8.37;;;;;;;13.30;48.97;95427.94;5041929;28;20513;-65
2023/12/18 12:04:45;;;;;;;12.40;8.00;;;;;;;13.41;49.46;95425.13;5034988;28;20045;-65
2023/12/18 12:07:32;;;;;;;14.27;8.27;;;;;;;13.86;48.97;95427.38;5044910;28;20041;-66
2023/12/18 12:10:20;;;;;;;16.33;10.10;;;;;;;15.14;46.91;95417.53;5019430;28;20434;-66
2023/12/18 12:13:07;;;;;;;17.08;9.65;;;;;;;14.08;48.44;95414.28;5042113;28;20053;-67
2023/12/18 12:15:56;;;;;;;15.20;8.80;;;;;;;14.78;46.70;95408.75;5047746;28;20060;-67
2023/12/18 12:18:46;;;;;;;13.05;8.20;;;;;;;12.26;52.13;95408.56;5048590;28;20099;-67
2023/12/18 12:21:34;;;;;;;11.95;7.50;;;;;;;9.98;57.96;95412.09;5043547;28;20052;-66
2023/12/18 12:24:37;;;;;;;12.00;6.82;;;;;;;8.89;75.80;95409.09;5045205;28;20270;-64
2023/12/18 12:27:06;;;;;;;14.82;7.95;;;;;;;8.04;88.08;95403.75;5038390;28;20410;-65
2023/12/18 12:29:33;;;;;;;13.03;7.40;;;;;;;7.73;94.92;95405.50;5046534;28;20041;-66
2023/12/18 12:32:00;;;;;;;14.80;7.93;;;;;;;7.53;97.20;95403.94;5040039;28;20068;-66
2023/12/18 12:34:39;;;;;;;16.33;8.00;;;;;;;7.32;98.99;95402.31;5042004;28;20037;-66
2023/12/18 12:37:06;;;;;;;13.48;7.18;;;;;;;7.40;98.47;95397.81;5037683;28;20042;-65
2023/12/18 12:39:32;;;;;;;14.13;7.13;;;;;;;7.43;98.92;95401.78;5042258;28;20474;-66
2023/12/18 12:41:59;;;;;;;14.83;7.40;;;;;;;7.49;99.59;95392.16;5051354;28;20045;-65
2023/12/18 12:44:27;;;;;;;16.30;8.20;;;;;;;7.40;100.00;95398.63;5046548;28;20037;-65
2023/12/18 12:46:54;;;;;;;13.95;7.15;;;;;;;7.06;100.00;95385.78;5041803;28;20045;-65
2023/12/18 12:49:20;;;;;;;12.88;7.05;;;;;;;7.18;100.00;95391.09;5036908;28;20072;-66
2023/12/18 12:51:47;;;;;;;14.32;8.00;;;;;;;7.14;100.00;95390.22;5041294;28;20067;-66
2023/12/18 12:54:14;;;;;;;17.57;8.07;;;;;;;7.09;100.00;95379.59;5036392;28;20687;-66